Terminal Aerodrome Forecast
Issued by NWS

Home | Current Version | Previous Version | Graphics & Text | Print | Product List | Glossary On
Versions: 1 2 3 4 5 6 7 8 9 10 11 12 13 14
000
FTUS43 KICT 260500
TAFRSL
TAF
KRSL 260520Z 2606/2706 VRB06KT P6SM FEW120 BKN200
     FM260700 VRB06KT P6SM VCTS SCT090CB BKN120
     FM261000 21008KT P6SM BKN150
     FM262100 34008KT P6SM FEW100 BKN200
     FM270000 02008KT P6SM VCTS SCT080CB BKN120=

USA.gov is the U.S. government's official web portal to all federal, state and local government web resources and services.